»·PEaware :: FDX519 KLAX-KSAN

FDX519 :: KLAX-KSAN

FLIGHT INFORMATION

Flight Status: Arrived
Operator:
Federal Express
More flights by this operator :: More flights under this callsign
Pilot: Brandon G. (13)
Aircraft: BOEING 727-200
(B722)
More flights by this aircraft type
Origin: KLAX Los Angeles Intl
United States
Destination: KSAN San Diego Intl-Lindbergh
United States
More flights between these airports :: More routes between these airports
Route: +LAXX1 MZB
File this flight plan on PilotEdge
Remarks:
Altitude:
(Current/Filed)
13,000ft
Speed:
(Current/Filed)
385kts
Departed: 06-Oct-18 12:33 PM
Arrived: 06-Oct-18 01:03 PM
Distance/Time
Traveled:
95nm/0:29
Distance/Time
To Go:
Arrived

Flight Plot

Page will automatically refresh every two minutes.

Flight plan parsing failed; only flown route is shown


Map Options




Map Legend


Flown Route
Filed Route
Departure Airport
Arrival Airport
Navaid (VOR, NDB)
Fix

Horizontal Profiles

Position Reports

Time Latitude Longitude Heading Altitude Ground
Speed
06-Oct-18 12:15 33.934050 -118.389728 180 109ft 0kts
06-Oct-18 12:16 33.934050 -118.389728 180 109ft 0kts
06-Oct-18 12:17 33.934050 -118.389728 180 109ft 0kts
06-Oct-18 12:18 33.934050 -118.389728 180 109ft 0kts
06-Oct-18 12:19 33.934050 -118.389728 180 109ft 0kts
06-Oct-18 12:20 33.934050 -118.389728 180 109ft 0kts
06-Oct-18 12:21 33.934050 -118.389728 180 109ft 0kts
06-Oct-18 12:22 33.934050 -118.389728 180 109ft 0kts
06-Oct-18 12:23 33.934050 -118.389728 180 109ft 0kts
06-Oct-18 12:24 33.934050 -118.389728 180 109ft 0kts
06-Oct-18 12:25 33.934050 -118.389728 180 109ft 0kts
06-Oct-18 12:26 33.934050 -118.389728 180 109ft 0kts
06-Oct-18 12:27 33.934050 -118.389728 180 109ft 0kts
06-Oct-18 12:28 33.934512 -118.389854 135 110ft 2kts
06-Oct-18 12:29 33.934633 -118.390356 80 110ft 0kts
06-Oct-18 12:30 33.934633 -118.390356 80 110ft 0kts
06-Oct-18 12:31 33.934633 -118.390356 80 110ft 0kts
06-Oct-18 12:32 33.934633 -118.390355 80 110ft 0kts
06-Oct-18 12:33 33.935543 -118.388466 84 107ft 19kts
06-Oct-18 12:34 33.937260 -118.383647 266 104ft 20kts
06-Oct-18 12:35 33.934716 -118.409299 264 394ft 186kts
06-Oct-18 12:36 33.919468 -118.462654 235 4727ft 180kts
06-Oct-18 12:37 33.883714 -118.519764 235 7629ft 276kts
06-Oct-18 12:38 33.799988 -118.560748 172 11031ft 401kts
06-Oct-18 12:39 33.700274 -118.537867 172 10997ft 462kts
06-Oct-18 12:40 33.577722 -118.449255 114 11000ft 468kts
06-Oct-18 12:41 33.535494 -118.330826 111 10983ft 469kts
06-Oct-18 12:42 33.477945 -118.163229 111 10984ft 472kts
06-Oct-18 12:43 33.438135 -118.042654 111 10981ft 473kts
06-Oct-18 12:44 33.391065 -117.899186 111 11028ft 458kts
06-Oct-18 12:45 33.345460 -117.759843 111 11025ft 450kts
06-Oct-18 12:46 33.300182 -117.622881 111 11021ft 444kts
06-Oct-18 12:47 33.247634 -117.493106 137 11017ft 436kts
06-Oct-18 12:48 33.152945 -117.431713 157 10997ft 317kts
06-Oct-18 12:49 33.078211 -117.389808 158 9772ft 290kts
06-Oct-18 12:50 33.007067 -117.350078 158 7942ft 276kts
06-Oct-18 12:51 32.940466 -117.313284 158 6408ft 263kts
06-Oct-18 12:52 32.878780 -117.245277 112 7045ft 293kts
06-Oct-18 12:53 32.856591 -117.170087 111 7067ft 277kts
06-Oct-18 12:54 32.831523 -117.084015 111 6035ft 273kts
06-Oct-18 12:55 32.807980 -117.003919 111 5009ft 225kts
06-Oct-18 12:56 32.788796 -116.937954 111 5048ft 204kts
06-Oct-18 12:57 32.768218 -116.879599 147 5017ft 188kts
06-Oct-18 12:58 32.715317 -116.881960 191 4154ft 195kts
06-Oct-18 12:59 32.676370 -116.905538 250 4040ft 158kts
06-Oct-18 13:00 32.677914 -116.960731 283 3149ft 183kts
06-Oct-18 13:01 32.691409 -117.016404 283 2781ft 173kts
06-Oct-18 13:02 32.705462 -117.074093 283 2602ft 175kts
06-Oct-18 13:03 32.718172 -117.126272 283 1644ft 158kts
06-Oct-18 13:04 32.729821 -117.174083 283 273ft 143kts
06-Oct-18 13:05 32.733768 -117.194650 118 25ft 5kts
06-Oct-18 13:06 32.731974 -117.187402 106 22ft 25kts
06-Oct-18 13:07 32.736070 -117.185263 323 25ft 26kts
06-Oct-18 13:08 32.737374 -117.185624 355 26ft 0kts
06-Oct-18 13:09 32.737374 -117.185624 355 26ft 0kts
06-Oct-18 13:10 32.737374 -117.185624 355 26ft 0kts
06-Oct-18 13:11 32.737374 -117.185624 355 26ft 0kts

Navigation Log

Ident Type
Flight plan parsing failed, navigation log unavailable